Map

Track Data

SID SEASON NUMBER BASIN SUBBASIN NAME ISO_TIME NATURE LAT LON WMO_WIND WMO_PRES WMO_AGENCY TRACK_TYPE DIST2LAND LANDFALL IFLAG USA_AGENCY USA_ATCF_ID USA_LAT USA_LON USA_RECORD USA_STATUS USA_WIND USA_PRES USA_SSHS USA_R34_NE USA_R34_SE USA_R34_SW USA_R34_NW USA_R50_NE USA_R50_SE USA_R50_SW USA_R50_NW USA_R64_NE USA_R64_SE USA_R64_SW USA_R64_NW USA_POCI USA_ROCI USA_RMW USA_EYE TOKYO_LAT TOKYO_LON TOKYO_GRADE TOKYO_WIND TOKYO_PRES TOKYO_R50_DIR TOKYO_R50_LONG TOKYO_R50_SHORT TOKYO_R30_DIR TOKYO_R30_LONG TOKYO_R30_SHORT TOKYO_LAND CMA_LAT CMA_LON CMA_CAT CMA_WIND CMA_PRES HKO_LAT HKO_LON HKO_CAT HKO_WIND HKO_PRES NEWDELHI_LAT NEWDELHI_LON NEWDELHI_GRADE NEWDELHI_WIND NEWDELHI_PRES NEWDELHI_CI NEWDELHI_DP NEWDELHI_POCI REUNION_LAT REUNION_LON REUNION_TYPE REUNION_WIND REUNION_PRES REUNION_TNUM REUNION_CI REUNION_RMW REUNION_R34_NE REUNION_R34_SE REUNION_R34_SW REUNION_R34_NW REUNION_R50_NE REUNION_R50_SE REUNION_R50_SW REUNION_R50_NW REUNION_R64_NE REUNION_R64_SE REUNION_R64_SW REUNION_R64_NW BOM_LAT BOM_LON BOM_TYPE BOM_WIND BOM_PRES BOM_TNUM BOM_CI BOM_RMW BOM_R34_NE BOM_R34_SE BOM_R34_SW BOM_R34_NW BOM_R50_NE BOM_R50_SE BOM_R50_SW BOM_R50_NW BOM_R64_NE BOM_R64_SE BOM_R64_SW BOM_R64_NW BOM_ROCI BOM_POCI BOM_EYE BOM_POS_METHOD BOM_PRES_METHOD NADI_LAT NADI_LON NADI_CAT NADI_WIND NADI_PRES WELLINGTON_LAT WELLINGTON_LON WELLINGTON_WIND WELLINGTON_PRES DS824_LAT DS824_LON DS824_STAGE DS824_WIND DS824_PRES TD9636_LAT TD9636_LON TD9636_STAGE TD9636_WIND TD9636_PRES TD9635_LAT TD9635_LON TD9635_WIND TD9635_PRES TD9635_ROCI NEUMANN_LAT NEUMANN_LON NEUMANN_CLASS NEUMANN_WIND NEUMANN_PRES MLC_LAT MLC_LON MLC_CLASS MLC_WIND MLC_PRES USA_GUST BOM_GUST BOM_GUST_PER REUNION_GUST REUNION_GUST_PER USA_SEAHGT USA_SEARAD_NE USA_SEARAD_SE USA_SEARAD_SW USA_SEARAD_NW STORM_SPEED STORM_DIR
1985280N15254 1985 96 EP MM WALDO 1985-10-07 00:00:00 TS 15.0000 -106.100 25 hurdat_epa main 461 457 O_________O___ hurdat_epa EP211985 15.0000 -106.100 TD 25 -1 15.0000 -106.100 1 25 14 304
1985280N15254 1985 96 EP MM WALDO 1985-10-07 03:00:00 TS 15.3971 -106.712 main 470 457 P_________P___ EP211985 15.3755 -106.737 TD 27 -1 15.4621 -106.636 1 27 14 306
1985280N15254 1985 96 EP MM WALDO 1985-10-07 06:00:00 TS 15.8297 -107.264 30 hurdat_epa main 463 446 O_________P___ hurdat_epa EP211985 15.8000 -107.300 TD 30 -1 15.9188 -107.158 1 30 13 314
1985280N15254 1985 96 EP MM WALDO 1985-10-07 09:00:00 TS 16.3163 -107.716 main 446 438 P_________P___ EP211985 16.2998 -107.738 TD 32 -1 16.3661 -107.651 1 32 13 320
1985280N15254 1985 96 EP MM WALDO 1985-10-07 12:00:00 TS 16.8000 -108.100 35 hurdat_epa main 438 429 O_________O___ hurdat_epa EP211985 16.8000 -108.100 TS 35 0 16.8000 -108.100 2 35 12 321
1985280N15254 1985 96 EP MM WALDO 1985-10-07 15:00:00 TS 17.2105 -108.477 main 438 431 P_________P___ EP211985 17.2075 -108.473 TS 40 0 17.2196 -108.491 2 38 11 320
1985280N15254 1985 96 EP MM WALDO 1985-10-07 18:00:00 TS 17.6086 -108.805 45 hurdat_epa main 437 430 O_________P___ hurdat_epa EP211985 17.6000 -108.800 TS 45 0 17.6345 -108.821 2 42 10 325
1985280N15254 1985 96 EP MM WALDO 1985-10-07 21:00:00 TS 18.0405 -109.083 main 439 427 P_________P___ EP211985 18.0350 -109.080 TS 47 0 18.0572 -109.090 2 46 10 332
1985280N15254 1985 96 EP MM WALDO 1985-10-08 00:00:00 TS 18.5000 -109.300 50 hurdat_epa main 432 422 O_________O___ hurdat_epa EP211985 18.5000 -109.300 TS 50 0 18.5000 -109.300 2 50 10 338
1985280N15254 1985 96 EP MM WALDO 1985-10-08 03:00:00 TS 18.9930 -109.483 main 427 380 P_________P___ EP211985 18.9925 -109.480 TS 55 0 18.9944 -109.490 2 53 10 344
1985280N15254 1985 96 EP MM WALDO 1985-10-08 06:00:00 TS 19.5018 -109.605 60 hurdat_epa main 380 324 O_________P___ hurdat_epa EP211985 19.5000 -109.600 TS 60 0 19.5072 -109.620 2 57 11 350
1985280N15254 1985 96 EP MM WALDO 1985-10-08 09:00:00 TS 20.0209 -109.677 main 324 268 P_________P___ EP211985 20.0225 -109.673 TS 62 0 20.0164 -109.690 2 61 10 355
1985280N15254 1985 96 EP MM WALDO 1985-10-08 12:00:00 TS 20.5000 -109.700 65 hurdat_epa main 268 235 O_________O___ hurdat_epa EP211985 20.5000 -109.700 HU 65 1 20.5000 -109.700 3 65 9 356
1985280N15254 1985 96 EP MM WALDO 1985-10-08 15:00:00 TS 20.8692 -109.739 main 223 190 P_________P___ EP211985 20.8575 -109.737 HU 70 1 20.9046 -109.742 3 68 7 0
1985280N15254 1985 96 EP MM WALDO 1985-10-08 18:00:00 TS 21.2214 -109.704 75 hurdat_epa main 190 146 O_________P___ hurdat_epa EP211985 21.2000 -109.700 HU 75 1 21.2855 -109.717 3 72 8 11
1985280N15254 1985 96 EP MM WALDO 1985-10-08 21:00:00 TS 21.6389 -109.577 main 146 103 P_________P___ EP211985 21.6273 -109.575 HU 77 1 21.6737 -109.583 3 76 10 23
1985280N15254 1985 96 EP MM WALDO 1985-10-09 00:00:00 TS 22.1000 -109.300 80 hurdat_epa main 103 90 O_________O___ hurdat_epa EP211985 22.1000 -109.300 HU 80 1 22.1000 -109.300 4 80 12 36
1985280N15254 1985 96 EP MM WALDO 1985-10-09 03:00:00 TS 22.5716 -108.856 main 90 90 P_________P___ EP211985 22.5625 -108.860 HU 85 2 22.5836 -108.849 4 85 14 43
1985280N15254 1985 96 EP MM WALDO 1985-10-09 06:00:00 TS 23.1000 -108.300 90 hurdat_epa main 117 63 O_________O___ hurdat_epa EP211985 23.1000 -108.300 HU 90 2 23.1000 -108.300 4 90 16 42
1985280N15254 1985 96 EP MM WALDO 1985-10-09 09:00:00 TS 23.7629 -107.707 main 54 0 P_____________ EP211985 23.7629 -107.707 HU 77 1 4 18 38
1985280N15254 1985 96 EP MM WALDO 1985-10-09 12:00:00 ET 24.5000 -107.100 65 hurdat_epa main 0 O_____________ hurdat_epa EP211985 24.5000 -107.100 ET 65 -4 18 37

About IBTrACS Database

This database is a web-friendly format of International Best Track Archive for Climate Stewardship (IBTrACS), a global best track data archive curated by NOAA dating back to 1842.

Updated: 2021-12-01